Time;durP1;ratioP1;P1;durP2;ratioP2;P2;SDS_P1;SDS_P2;PMS_P1;PMS_P2;Temp;Humidity;BMP_temperature;BMP_pressure;BME280_temperature;BME280_humidity;BME280_pressure;Samples;Min_cycle;Max_cycle;Signal;HPM_P1;HPM_P2
2023/02/06 00:00:39;;;;;;;12.20;6.00;;;;;;;-0.99;73.66;100151.00;79503;1295;3012519;-66
2023/02/06 00:03:08;;;;;;;12.60;5.80;;;;;;;-1.10;74.02;100151.88;78203;1297;3026741;-67
2023/02/06 00:05:34;;;;;;;11.30;5.80;;;;;;;-1.29;75.15;100147.61;79652;1298;3012976;-66
2023/02/06 00:08:05;;;;;;;13.20;6.50;;;;;;;-1.29;75.53;100149.84;79593;1295;3011778;-65
2023/02/06 00:10:35;;;;;;;12.90;6.40;;;;;;;-1.23;75.50;100150.70;78468;1297;3051226;-65
2023/02/06 00:13:04;;;;;;;14.60;5.50;;;;;;;-1.22;75.28;100154.30;79450;1294;3013451;-66
2023/02/06 00:15:34;;;;;;;12.80;6.40;;;;;;;-1.18;75.05;100155.50;79087;1294;3011306;-66
2023/02/06 00:18:01;;;;;;;12.50;6.40;;;;;;;-1.22;75.19;100153.96;79491;1296;3013699;-63
2023/02/06 00:20:28;;;;;;;13.10;6.40;;;;;;;-1.12;74.82;100154.13;79446;1298;3011647;-65
2023/02/06 00:22:55;;;;;;;14.50;7.10;;;;;;;-1.19;75.04;100154.48;78183;1297;3028756;-64
2023/02/06 00:25:22;;;;;;;14.10;7.40;;;;;;;-1.27;75.57;100154.31;79488;1297;3019638;-64
2023/02/06 00:27:49;;;;;;;17.20;7.40;;;;;;;-1.29;76.11;100160.33;79432;1297;3011851;-65
2023/02/06 00:30:17;;;;;;;17.00;8.20;;;;;;;-1.34;76.41;100155.00;78187;1298;3027912;-63
2023/02/06 00:32:44;;;;;;;19.30;8.00;;;;;;;-1.29;76.56;100156.55;79483;1297;3013309;-63
2023/02/06 00:35:10;;;;;;;19.20;10.00;;;;;;;-1.29;76.36;100159.48;79422;1297;3011710;-65
2023/02/06 00:37:38;;;;;;;19.90;10.00;;;;;;;-1.39;76.45;100158.45;78210;1297;3027077;-63
2023/02/06 00:40:06;;;;;;;24.30;11.20;;;;;;;-1.40;76.84;100157.94;79600;1294;3013845;-64
2023/02/06 00:42:33;;;;;;;21.80;9.60;;;;;;;-1.39;76.88;100154.50;79387;1293;3011665;-65
2023/02/06 00:45:02;;;;;;;17.80;8.80;;;;;;;-1.33;76.35;100155.52;78229;1295;3051456;-66
2023/02/06 00:47:28;;;;;;;20.80;8.70;;;;;;;-1.38;76.09;100160.00;79431;1297;3014050;-64
2023/02/06 00:49:55;;;;;;;20.10;10.20;;;;;;;-1.41;76.04;100161.20;79306;1300;3012081;-64
2023/02/06 00:52:23;;;;;;;20.10;9.80;;;;;;;-1.32;76.46;100162.23;78260;1297;3028269;-62
2023/02/06 00:54:49;;;;;;;17.20;8.70;;;;;;;-1.31;75.46;100165.32;79561;1298;3021026;-63
2023/02/06 00:57:16;;;;;;;20.20;9.70;;;;;;;-1.38;75.70;100162.40;79339;1299;3013696;-64
2023/02/06 00:59:45;;;;;;;21.80;10.80;;;;;;;-1.38;75.80;100160.69;76779;1295;4949235;-64
2023/02/06 01:02:11;;;;;;;17.40;9.10;;;;;;;-1.45;75.90;100158.63;79433;1298;3013651;-65
2023/02/06 01:04:38;;;;;;;18.10;9.30;;;;;;;-1.41;75.73;100158.45;79420;1297;3011955;-63
2023/02/06 01:07:07;;;;;;;18.40;9.10;;;;;;;-1.40;75.03;100158.63;78241;1297;3049701;-63
2023/02/06 01:09:34;;;;;;;14.70;7.90;;;;;;;-1.43;74.71;100160.86;79614;1298;3018513;-63
2023/02/06 01:12:00;;;;;;;17.70;8.50;;;;;;;-1.36;74.70;100160.17;79330;1295;3013445;-67
2023/02/06 01:14:28;;;;;;;17.80;9.30;;;;;;;-1.35;74.56;100158.96;78205;1297;3028320;-66
2023/02/06 01:16:55;;;;;;;14.40;8.20;;;;;;;-1.25;74.46;100155.00;79451;1295;3013317;-65
2023/02/06 01:19:23;;;;;;;16.30;7.80;;;;;;;-1.22;73.46;100154.65;79482;1295;3012848;-65
2023/02/06 01:21:51;;;;;;;14.90;7.50;;;;;;;-1.39;73.74;100149.86;78254;1297;3051306;-64
2023/02/06 01:24:17;;;;;;;14.60;7.90;;;;;;;-1.42;73.91;100155.02;79455;1298;3013788;-63
2023/02/06 01:26:44;;;;;;;14.40;7.50;;;;;;;-1.41;74.02;100152.79;79589;1297;3013559;-64
2023/02/06 01:29:12;;;;;;;15.40;7.50;;;;;;;-1.36;73.66;100155.87;78238;1297;3025885;-65
2023/02/06 01:31:40;;;;;;;17.20;7.10;;;;;;;-1.39;73.53;100156.73;79637;1295;3012776;-66
2023/02/06 01:34:08;;;;;;;15.40;7.60;;;;;;;-1.38;73.57;100163.26;79440;1293;3011550;-67
2023/02/06 01:36:37;;;;;;;14.30;6.90;;;;;;;-1.44;73.60;100161.20;78283;1301;3049880;-66
2023/02/06 01:39:05;;;;;;;17.70;7.80;;;;;;;-1.48;73.76;100159.48;79608;1297;3013050;-64
2023/02/06 01:41:31;;;;;;;14.60;7.60;;;;;;;-1.46;73.75;100165.84;79365;1300;3012201;-65
2023/02/06 01:44:16;;;;;;;13.90;6.80;;;;;;;-1.44;73.86;100168.25;78303;1301;3052033;-65
2023/02/06 01:46:45;;;;;;;16.70;7.50;;;;;;;-1.46;73.57;100171.00;78242;1297;3056518;-65
2023/02/06 01:49:23;;;;;;;18.00;8.20;;;;;;;-1.60;74.24;100174.61;79598;1294;3013163;-67
2023/02/06 01:52:10;;;;;;;14.30;8.20;;;;;;;-1.52;74.11;100171.34;78242;1296;3053019;-66
2023/02/06 01:54:38;;;;;;;12.80;7.00;;;;;;;-1.39;74.29;100171.34;78153;1299;3051188;-68
2023/02/06 01:57:06;;;;;;;21.20;10.50;;;;;;;-1.56;74.33;100171.86;79425;1300;3013202;-67
2023/02/06 01:59:32;;;;;;;22.40;10.40;;;;;;;-1.65;75.33;100177.36;79374;1299;3011628;-66
2023/02/06 02:02:00;;;;;;;23.00;10.00;;;;;;;-1.58;74.98;100176.66;78255;1297;3051735;-65
2023/02/06 02:04:27;;;;;;;19.20;10.00;;;;;;;-1.63;75.20;100178.39;79259;1296;3013173;-64
2023/02/06 02:07:06;;;;;;;24.30;11.00;;;;;;;-1.51;75.24;100178.39;79347;1300;3011458;-65
2023/02/06 02:09:34;;;;;;;24.60;10.70;;;;;;;-1.61;75.48;100175.64;78252;1297;3050115;-65
2023/02/06 02:12:00;;;;;;;22.40;10.50;;;;;;;-1.68;75.69;100177.35;79548;1298;3021191;-65
2023/02/06 02:14:27;;;;;;;23.50;12.10;;;;;;;-1.65;75.76;100175.13;79416;1295;3011771;-64
2023/02/06 02:17:04;;;;;;;23.20;9.80;;;;;;;-1.65;75.82;100177.19;78178;1299;3028583;-66
2023/02/06 02:19:38;;;;;;;18.60;9.90;;;;;;;-1.72;75.56;100172.02;78249;1294;3057176;-66
2023/02/06 02:22:20;;;;;;;21.50;10.10;;;;;;;-1.79;75.96;100174.94;79516;1294;3011633;-66
2023/02/06 02:25:08;;;;;;;21.50;10.00;;;;;;;-1.71;75.86;100178.55;78360;1296;3053758;-64
2023/02/06 02:28:38;;;;;;;16.50;8.20;;;;;;;-1.76;75.90;100183.70;78257;1297;3050473;-65
2023/02/06 02:31:15;;;;;;;18.80;8.00;;;;;;;-1.73;75.72;100189.20;77974;1297;3052191;-66
2023/02/06 02:33:52;;;;;;;22.30;9.70;;;;;;;-1.75;75.76;100192.80;78254;1297;3053148;-65
2023/02/06 02:36:42;;;;;;;17.10;9.00;;;;;;;-1.75;75.88;100196.58;78310;1294;3068753;-64
2023/02/06 02:39:46;;;;;;;18.50;8.50;;;;;;;-1.65;75.87;100201.91;78100;1295;3051647;-63
2023/02/06 02:42:22;;;;;;;16.10;7.70;;;;;;;-1.64;75.57;100203.46;78191;1295;3059003;-65
2023/02/06 02:44:51;;;;;;;18.70;9.10;;;;;;;-1.74;75.62;100202.26;79551;1295;3011980;-64
2023/02/06 02:47:22;;;;;;;20.30;9.00;;;;;;;-1.67;75.30;100203.11;78192;1301;3053382;-66
2023/02/06 02:49:48;;;;;;;17.60;8.90;;;;;;;-1.66;75.11;100200.38;79504;1297;3013147;-67
2023/02/06 02:52:17;;;;;;;17.10;8.60;;;;;;;-1.70;74.83;100203.98;78847;1301;3013478;-65
2023/02/06 02:54:44;;;;;;;18.70;8.90;;;;;;;-1.65;75.13;100202.09;79369;1295;3013582;-64
2023/02/06 02:57:16;;;;;;;18.40;8.70;;;;;;;-1.71;74.97;100202.95;79483;1294;3012820;-64
2023/02/06 02:59:45;;;;;;;16.70;8.20;;;;;;;-1.64;74.47;100202.77;78528;1295;3056514;-63
2023/02/06 03:02:17;;;;;;;14.80;7.70;;;;;;;-1.61;74.64;100201.05;79512;1295;3013048;-65
2023/02/06 03:04:46;;;;;;;15.60;7.70;;;;;;;-1.72;74.34;100204.66;78318;1297;3049614;-66
2023/02/06 03:07:13;;;;;;;15.30;7.90;;;;;;;-1.89;74.69;100200.00;79541;1297;3011468;-67
2023/02/06 03:10:09;;;;;;;16.10;7.80;;;;;;;-1.88;75.06;100204.63;79499;1295;3013939;-66
2023/02/06 03:13:16;;;;;;;18.20;7.90;;;;;;;-1.80;74.99;100196.23;78093;1300;3050460;-64
2023/02/06 03:15:50;;;;;;;17.90;7.90;;;;;;;-1.84;74.56;100199.31;78148;1299;3056390;-63
2023/02/06 03:18:22;;;;;;;16.50;7.50;;;;;;;-1.84;74.56;100200.17;79474;1295;3011334;-64
2023/02/06 03:20:50;;;;;;;20.60;9.30;;;;;;;-1.90;74.49;100204.12;78212;1295;3053172;-69
2023/02/06 03:23:20;;;;;;;16.30;8.30;;;;;;;-1.83;74.75;100205.31;79494;1297;3013252;-68
2023/02/06 03:25:50;;;;;;;19.60;8.20;;;;;;;-1.83;74.73;100206.87;78974;1297;3011921;-68
2023/02/06 03:28:22;;;;;;;18.70;9.60;;;;;;;-1.82;74.67;100211.17;79768;1297;3013159;-66
2023/02/06 03:30:52;;;;;;;18.30;8.60;;;;;;;-1.94;74.79;100207.54;78256;1297;3068475;-69
2023/02/06 03:33:20;;;;;;;18.40;9.00;;;;;;;-1.87;74.59;100211.85;79490;1294;3012977;-66
2023/02/06 03:35:48;;;;;;;18.50;8.90;;;;;;;-1.86;74.62;100209.45;78234;1298;3025133;-67
2023/02/06 03:38:15;;;;;;;27.10;9.90;;;;;;;-1.95;74.80;100209.08;79458;1294;3013040;-66
2023/02/06 03:40:42;;;;;;;16.60;9.10;;;;;;;-1.86;74.39;100208.24;79411;1294;3011569;-67
2023/02/06 03:43:12;;;;;;;19.20;9.20;;;;;;;-1.80;74.36;100209.98;78160;1298;3026707;-67
2023/02/06 03:45:40;;;;;;;17.90;8.60;;;;;;;-1.81;73.94;100205.67;79460;1298;3013221;-67
2023/02/06 03:48:15;;;;;;;17.90;8.90;;;;;;;-1.76;73.98;100205.86;78173;1294;3025983;-66
2023/02/06 03:50:44;;;;;;;20.40;9.20;;;;;;;-1.76;73.75;100206.73;78916;1295;3011680;-64
2023/02/06 03:53:11;;;;;;;17.30;9.30;;;;;;;-1.73;73.69;100205.69;79506;1294;3013539;-64
2023/02/06 03:55:38;;;;;;;18.60;10.30;;;;;;;-1.82;73.34;100208.77;79219;1295;3013208;-64
2023/02/06 03:58:08;;;;;;;21.50;10.20;;;;;;;-1.80;73.45;100212.71;78047;1300;3053745;-67
2023/02/06 04:00:35;;;;;;;23.30;10.90;;;;;;;-1.82;73.26;100216.33;79494;1298;3013216;-64
2023/02/06 04:03:04;;;;;;;23.60;11.30;;;;;;;-1.81;73.07;100221.30;78719;1300;3011727;-67
2023/02/06 04:05:31;;;;;;;21.80;11.30;;;;;;;-1.83;73.29;100222.34;79360;1301;3013069;-64
2023/02/06 04:07:59;;;;;;;22.70;11.40;;;;;;;-1.83;73.14;100220.45;79488;1298;3012883;-68
2023/02/06 04:10:27;;;;;;;26.20;12.30;;;;;;;-1.83;73.31;100217.00;78265;1295;3056545;-67
2023/02/06 04:12:54;;;;;;;26.00;10.90;;;;;;;-1.93;73.00;100223.00;79531;1295;3013073;-62
2023/02/06 04:15:21;;;;;;;23.00;10.30;;;;;;;-2.01;72.62;100222.98;79535;1295;3011835;-67
2023/02/06 04:17:51;;;;;;;18.00;9.30;;;;;;;-1.96;72.52;100223.17;78192;1298;3051878;-65
2023/02/06 04:20:19;;;;;;;20.50;9.60;;;;;;;-1.97;72.47;100228.13;79471;1297;3011839;-65
2023/02/06 04:22:49;;;;;;;25.90;10.90;;;;;;;-1.90;72.38;100231.41;78964;1294;3013288;-65
2023/02/06 04:25:15;;;;;;;20.40;9.60;;;;;;;-1.95;72.21;100233.13;79465;1295;3014377;-66
2023/02/06 04:27:42;;;;;;;19.30;9.60;;;;;;;-1.92;72.10;100231.77;79448;1294;3013167;-64
2023/02/06 04:30:10;;;;;;;22.20;9.60;;;;;;;-1.92;72.40;100232.45;78370;1295;3053586;-63
2023/02/06 04:32:39;;;;;;;20.90;10.00;;;;;;;-1.96;72.19;100232.27;79444;1298;3011750;-64
2023/02/06 04:35:07;;;;;;;26.50;10.50;;;;;;;-1.94;72.34;100236.90;78959;1297;3011697;-66
2023/02/06 04:37:34;;;;;;;23.00;10.30;;;;;;;-2.02;72.44;100235.85;79520;1297;3012835;-67
2023/02/06 04:40:00;;;;;;;25.90;12.00;;;;;;;-2.06;72.32;100242.88;79496;1297;3012952;-68
2023/02/06 04:42:28;;;;;;;23.00;10.20;;;;;;;-2.07;72.46;100243.90;78657;1295;3025891;-67
2023/02/06 04:44:55;;;;;;;22.20;10.60;;;;;;;-1.95;72.79;100242.39;79484;1295;3013597;-70
2023/02/06 04:47:21;;;;;;;23.40;10.60;;;;;;;-1.90;72.08;100246.02;79318;1295;3011713;-66
2023/02/06 04:49:49;;;;;;;22.30;10.90;;;;;;;-1.86;72.05;100248.26;78215;1298;3026512;-66
2023/02/06 04:52:16;;;;;;;23.90;10.40;;;;;;;-1.84;71.83;100251.88;79526;1295;3013558;-67
2023/02/06 04:54:43;;;;;;;22.40;9.90;;;;;;;-1.85;71.68;100245.50;79318;1294;3011615;-66
2023/02/06 04:57:11;;;;;;;22.40;10.30;;;;;;;-1.76;71.51;100250.16;78394;1295;3057333;-68
2023/02/06 04:59:38;;;;;;;27.90;10.60;;;;;;;-1.85;71.24;100255.98;79524;1295;3013129;-69
2023/02/06 05:02:04;;;;;;;21.90;11.10;;;;;;;-1.89;71.71;100255.46;79634;1294;3013437;-67
2023/02/06 05:04:32;;;;;;;22.90;10.50;;;;;;;-1.76;71.91;100261.67;78415;1297;3026297;-67
2023/02/06 05:06:58;;;;;;;25.40;11.60;;;;;;;-1.75;71.25;100263.22;79268;1298;3011614;-69
2023/02/06 05:09:25;;;;;;;29.10;13.10;;;;;;;-1.86;71.40;100263.71;79441;1294;3011538;-69
2023/02/06 05:11:54;;;;;;;28.30;11.90;;;;;;;-1.83;71.52;100266.82;78451;1298;3028494;-67
2023/02/06 05:14:20;;;;;;;26.40;11.70;;;;;;;-1.85;71.33;100267.15;79572;1295;3018511;-69
2023/02/06 05:16:47;;;;;;;23.80;10.90;;;;;;;-1.97;71.53;100272.77;79487;1298;3011651;-66
2023/02/06 05:19:14;;;;;;;24.60;11.70;;;;;;;-1.81;71.56;100269.91;78153;1298;3026610;-67
2023/02/06 05:21:41;;;;;;;29.50;13.40;;;;;;;-1.93;71.13;100270.38;79524;1294;3018526;-67
2023/02/06 05:24:08;;;;;;;27.90;13.20;;;;;;;-1.93;70.96;100271.59;79639;1294;3011673;-70
2023/02/06 05:26:35;;;;;;;26.50;12.60;;;;;;;-1.84;70.84;100272.15;78379;1298;3028420;-66
2023/02/06 05:29:02;;;;;;;26.20;11.90;;;;;;;-1.94;70.66;100276.91;79512;1296;3013219;-66
2023/02/06 05:31:29;;;;;;;24.50;11.50;;;;;;;-2.25;71.27;100274.21;79326;1295;3011660;-67
2023/02/06 05:33:56;;;;;;;23.90;11.60;;;;;;;-2.11;71.10;100279.77;78406;1294;3026439;-66
2023/02/06 05:36:23;;;;;;;25.80;11.10;;;;;;;-2.34;70.98;100280.35;79371;1297;3013660;-66
2023/02/06 05:38:50;;;;;;;24.40;11.00;;;;;;;-2.48;71.54;100281.30;79612;1295;3013051;-65
2023/02/06 05:41:18;;;;;;;25.30;11.00;;;;;;;-2.43;71.33;100284.60;78353;1298;3025926;-66
2023/02/06 05:43:44;;;;;;;21.00;9.20;;;;;;;-2.41;71.05;100284.95;79400;1297;3018772;-65
2023/02/06 05:46:11;;;;;;;20.80;9.80;;;;;;;-2.46;70.74;100280.11;79384;1296;3011707;-64
2023/02/06 05:48:40;;;;;;;20.70;9.20;;;;;;;-2.49;70.70;100282.33;78175;1294;3051401;-66
2023/02/06 05:51:06;;;;;;;21.80;9.30;;;;;;;-2.47;70.54;100282.86;79324;1297;3013623;-65
2023/02/06 05:53:34;;;;;;;25.10;10.90;;;;;;;-2.48;70.27;100282.34;79374;1297;3011677;-63
2023/02/06 05:56:01;;;;;;;20.40;9.00;;;;;;;-2.55;70.20;100285.39;78442;1298;3028036;-68
2023/02/06 05:58:28;;;;;;;20.00;10.10;;;;;;;-2.62;70.06;100284.83;79634;1295;3013274;-68
2023/02/06 06:00:55;;;;;;;19.60;9.90;;;;;;;-2.54;69.83;100286.58;79608;1295;3011612;-66
2023/02/06 06:03:23;;;;;;;20.50;8.80;;;;;;;-2.59;69.58;100293.25;78189;1295;3052692;-65
2023/02/06 06:05:49;;;;;;;18.40;8.70;;;;;;;-2.80;69.72;100298.42;79552;1295;3013564;-63
2023/02/06 06:08:16;;;;;;;23.40;9.30;;;;;;;-2.69;69.63;100300.56;79472;1297;3013077;-65
2023/02/06 06:10:44;;;;;;;19.20;8.20;;;;;;;-2.76;69.36;100307.55;78270;1294;3026052;-66
2023/02/06 06:13:11;;;;;;;20.30;8.10;;;;;;;-2.75;69.29;100308.41;79465;1295;3013240;-65
2023/02/06 06:15:37;;;;;;;19.30;8.50;;;;;;;-2.71;69.12;100309.47;79441;1295;3011667;-70
2023/02/06 06:18:06;;;;;;;18.90;8.90;;;;;;;-2.84;68.98;100312.28;78440;1294;3051431;-70
2023/02/06 06:20:33;;;;;;;21.20;9.90;;;;;;;-2.89;68.91;100314.13;79686;1293;3018717;-73
2023/02/06 06:22:59;;;;;;;19.60;8.30;;;;;;;-2.91;69.19;100314.80;79623;1295;3011312;-68
2023/02/06 06:25:27;;;;;;;19.30;8.90;;;;;;;-2.84;68.87;100322.58;78487;1294;3026371;-69
2023/02/06 06:27:54;;;;;;;16.70;7.60;;;;;;;-2.70;68.53;100327.66;79648;1294;3018684;-67
2023/02/06 06:30:20;;;;;;;18.20;8.40;;;;;;;-2.68;68.14;100332.30;79585;1295;3011623;-68
2023/02/06 06:32:48;;;;;;;18.50;8.50;;;;;;;-2.75;67.76;100330.19;78106;1298;3028000;-72
2023/02/06 06:35:15;;;;;;;21.50;9.10;;;;;;;-2.84;68.02;100330.27;79907;1294;3018425;-68
2023/02/06 06:37:42;;;;;;;20.30;9.70;;;;;;;-2.86;67.99;100332.85;79992;1296;3011366;-66
2023/02/06 06:40:10;;;;;;;20.40;9.50;;;;;;;-2.98;68.27;100330.86;78384;1294;3026350;-68
2023/02/06 06:42:37;;;;;;;19.20;8.30;;;;;;;-2.92;68.05;100333.14;79497;1294;3013249;-65
2023/02/06 06:45:04;;;;;;;21.30;8.50;;;;;;;-2.88;67.48;100325.96;79437;1295;3011837;-68
2023/02/06 06:47:32;;;;;;;19.10;7.70;;;;;;;-2.92;67.82;100322.00;78243;1298;3051526;-68
2023/02/06 06:49:59;;;;;;;15.70;7.80;;;;;;;-2.85;67.50;100327.02;79471;1297;3020639;-65
2023/02/06 06:52:25;;;;;;;18.30;8.80;;;;;;;-2.77;67.08;100327.77;79523;1294;3011420;-64
2023/02/06 06:54:53;;;;;;;15.50;7.20;;;;;;;-2.54;66.88;100321.08;78798;1295;3028787;-66
2023/02/06 06:57:20;;;;;;;18.30;7.70;;;;;;;-2.52;66.21;100320.21;79471;1295;3019131;-66
2023/02/06 06:59:47;;;;;;;16.90;7.50;;;;;;;-2.55;66.14;100322.09;79482;1295;3013477;-66
2023/02/06 07:02:15;;;;;;;17.00;8.10;;;;;;;-2.42;65.68;100323.05;78586;1295;3055033;-68
2023/02/06 07:04:42;;;;;;;18.10;7.90;;;;;;;-2.37;65.47;100320.99;79336;1298;3019053;-70
2023/02/06 07:07:09;;;;;;;16.50;8.00;;;;;;;-2.32;65.24;100327.05;79603;1298;3011671;-64
2023/02/06 07:09:38;;;;;;;18.20;8.00;;;;;;;-2.15;65.30;100320.45;78125;1295;3056558;-65
2023/02/06 07:12:06;;;;;;;18.00;7.60;;;;;;;-2.06;64.76;100324.94;79524;1295;3011853;-67
2023/02/06 07:14:33;;;;;;;19.10;8.30;;;;;;;-2.10;64.30;100326.98;79364;1294;3011964;-64
2023/02/06 07:17:01;;;;;;;18.00;8.40;;;;;;;-2.15;64.75;100326.61;78277;1294;3052211;-65
2023/02/06 07:19:28;;;;;;;23.70;9.50;;;;;;;-1.94;64.41;100325.17;79439;1298;3018174;-67
2023/02/06 07:21:54;;;;;;;19.60;9.00;;;;;;;-1.79;63.97;100326.77;79384;1298;3012767;-63
2023/02/06 07:24:22;;;;;;;20.90;9.10;;;;;;;-1.74;63.06;100321.12;78113;1297;3026575;-64
2023/02/06 07:26:49;;;;;;;18.60;8.80;;;;;;;-1.66;63.41;100323.89;79344;1296;3013355;-69
2023/02/06 07:29:15;;;;;;;19.60;8.40;;;;;;;-1.60;62.85;100324.95;79322;1294;3011956;-66
2023/02/06 07:31:43;;;;;;;15.20;8.40;;;;;;;-1.65;62.49;100327.16;78218;1297;3026609;-63
2023/02/06 07:34:11;;;;;;;16.00;7.80;;;;;;;-1.65;62.76;100329.22;79473;1297;3018724;-67
2023/02/06 07:36:37;;;;;;;16.20;8.60;;;;;;;-1.50;62.61;100325.14;79553;1294;3011368;-63
2023/02/06 07:39:05;;;;;;;16.50;7.40;;;;;;;-1.55;62.18;100323.58;78289;1298;3057278;-63
2023/02/06 07:41:32;;;;;;;16.40;6.80;;;;;;;-1.39;62.09;100322.58;79544;1295;3013058;-63
2023/02/06 07:43:59;;;;;;;22.30;8.80;;;;;;;-1.40;62.02;100318.98;79371;1295;3013805;-65
2023/02/06 07:46:27;;;;;;;19.80;7.90;;;;;;;-1.47;62.21;100321.89;78113;1298;3028240;-66
2023/02/06 07:48:53;;;;;;;14.70;6.90;;;;;;;-1.13;62.29;100318.66;79442;1298;3013129;-72
2023/02/06 07:51:20;;;;;;;13.80;6.30;;;;;;;-0.95;61.69;100316.42;79731;1295;3011564;-66
2023/02/06 07:53:48;;;;;;;16.10;6.70;;;;;;;-1.11;60.87;100320.73;77930;1295;3026457;-67
2023/02/06 07:56:16;;;;;;;14.00;6.50;;;;;;;-1.10;61.09;100318.15;79274;1295;3013505;-65
2023/02/06 07:58:43;;;;;;;14.20;6.60;;;;;;;-0.92;60.90;100317.13;79117;1295;3011650;-64
2023/02/06 08:01:11;;;;;;;17.20;7.20;;;;;;;-0.83;60.59;100324.19;78180;1298;3052877;-68
2023/02/06 08:03:38;;;;;;;15.70;7.70;;;;;;;-0.69;60.70;100321.41;79693;1297;3013520;-66
2023/02/06 08:06:09;;;;;;;20.10;9.20;;;;;;;-0.61;60.19;100322.10;79383;1297;3011686;-66
2023/02/06 08:08:38;;;;;;;20.60;9.00;;;;;;;-0.69;59.87;100322.61;78190;1294;3055224;-71
2023/02/06 08:11:11;;;;;;;19.90;9.40;;;;;;;-0.54;60.31;100318.30;79324;1295;3012967;-67
2023/02/06 08:13:40;;;;;;;19.10;9.30;;;;;;;-0.27;60.61;100318.59;78250;1293;3052954;-64
2023/02/06 08:16:09;;;;;;;20.80;10.80;;;;;;;-0.13;59.60;100313.55;79404;1298;3012763;-66
2023/02/06 08:18:38;;;;;;;21.90;9.00;;;;;;;-0.16;59.30;100317.02;78558;1298;3051700;-65
2023/02/06 08:21:08;;;;;;;26.70;9.30;;;;;;;0.07;59.04;100318.31;81952;1294;3012615;-68
2023/02/06 08:23:37;;;;;;;20.00;9.30;;;;;;;0.14;58.28;100314.14;79281;1298;3056749;-64
2023/02/06 08:26:06;;;;;;;21.00;9.80;;;;;;;0.22;58.54;100313.24;79375;1295;3013355;-67
2023/02/06 08:28:36;;;;;;;19.50;9.10;;;;;;;0.20;57.92;100311.52;78249;1297;3050952;-64
2023/02/06 08:31:16;;;;;;;15.50;8.50;;;;;;;0.35;58.11;100308.70;79437;1298;3018780;-64
2023/02/06 08:33:44;;;;;;;19.60;8.10;;;;;;;0.34;57.37;100313.00;78252;1298;3068821;-62
2023/02/06 08:36:11;;;;;;;13.70;7.00;;;;;;;0.43;57.37;100313.66;79490;1296;3020547;-63
2023/02/06 08:38:38;;;;;;;15.10;6.70;;;;;;;0.59;57.29;100314.07;79447;1297;3011710;-62
2023/02/06 08:41:17;;;;;;;12.40;6.00;;;;;;;0.67;56.54;100313.86;78343;1294;3028354;-62
2023/02/06 08:43:45;;;;;;;9.60;5.00;;;;;;;0.77;56.03;100312.58;78249;1298;3050983;-63
2023/02/06 08:46:12;;;;;;;9.40;4.70;;;;;;;0.92;56.33;100309.02;79655;1297;3012941;-62
2023/02/06 08:48:39;;;;;;;7.90;4.30;;;;;;;0.96;55.82;100306.08;79526;1298;3012092;-62
2023/02/06 08:51:07;;;;;;;9.70;4.80;;;;;;;1.00;55.53;100304.64;78245;1294;3050868;-63
2023/02/06 08:53:34;;;;;;;9.50;4.90;;;;;;;1.16;55.79;100301.59;79459;1296;3013738;-64
2023/02/06 08:56:04;;;;;;;12.70;5.40;;;;;;;1.17;54.76;100299.67;79880;1295;3011965;-65
2023/02/06 08:58:32;;;;;;;8.50;4.90;;;;;;;1.25;54.80;100301.50;78417;1298;3050965;-62
2023/02/06 09:01:05;;;;;;;9.10;4.50;;;;;;;1.31;53.60;100300.59;79604;1298;3018619;-60
2023/02/06 09:03:34;;;;;;;9.20;5.60;;;;;;;1.30;54.25;100296.96;78237;1296;3069862;-68
2023/02/06 09:06:02;;;;;;;13.70;6.90;;;;;;;1.50;54.58;100293.50;79468;1295;3014899;-66
2023/02/06 09:08:32;;;;;;;15.10;7.10;;;;;;;1.24;54.50;100297.02;78962;1297;3011603;-65
2023/02/06 09:11:05;;;;;;;14.60;7.40;;;;;;;0.75;55.84;100291.89;79432;1296;3013496;-66
2023/02/06 09:13:34;;;;;;;;;;;;;;;0.84;55.85;100294.94;78258;1298;3049634;-63
2023/02/06 09:16:00;;;;;;;12.30;6.20;;;;;;;0.45;56.82;100293.64;79549;1298;3013042;-64
2023/02/06 09:18:27;;;;;;;16.40;7.30;;;;;;;0.23;57.19;100292.05;79442;1297;3011785;-64
2023/02/06 09:21:03;;;;;;;11.30;6.30;;;;;;;0.34;57.72;100287.68;78249;1298;3025625;-64
2023/02/06 09:23:30;;;;;;;12.90;5.60;;;;;;;0.48;57.69;100294.66;78318;1294;3055540;-66
2023/02/06 09:25:57;;;;;;;15.80;7.00;;;;;;;0.79;57.30;100282.03;79490;1295;3018669;-61
2023/02/06 09:28:24;;;;;;;15.90;7.80;;;;;;;0.74;57.33;100284.15;79429;1295;3011626;-62
2023/02/06 09:30:51;;;;;;;16.30;8.10;;;;;;;0.52;58.40;100284.46;78205;1298;3028742;-65
2023/02/06 09:33:18;;;;;;;18.80;8.50;;;;;;;0.42;58.74;100286.24;79507;1298;3013795;-63
2023/02/06 09:35:45;;;;;;;21.20;9.00;;;;;;;0.41;58.99;100286.60;79436;1298;3013569;-68
2023/02/06 09:38:12;;;;;;;17.60;8.80;;;;;;;0.13;60.05;100290.54;78254;1298;3028069;-62
2023/02/06 09:40:39;;;;;;;17.30;7.90;;;;;;;0.23;60.07;100290.66;79547;1295;3018378;-63
2023/02/06 09:43:05;;;;;;;15.10;7.30;;;;;;;0.21;60.41;100286.70;79496;1295;3011610;-61
2023/02/06 09:45:34;;;;;;;17.40;8.10;;;;;;;0.06;60.55;100287.30;78265;1298;3027875;-59
2023/02/06 09:48:20;;;;;;;16.20;7.60;;;;;;;0.28;60.42;100280.64;79687;1298;3013375;-66
2023/02/06 09:51:20;;;;;;;12.20;5.90;;;;;;;0.48;59.51;100277.94;78271;1294;3051099;-63
2023/02/06 09:53:57;;;;;;;11.10;5.20;;;;;;;0.69;59.23;100272.63;78218;1298;3056797;-66
2023/02/06 09:56:52;;;;;;;11.00;6.20;;;;;;;0.85;57.66;100273.20;78312;1298;3050096;-66
2023/02/06 09:59:33;;;;;;;11.90;5.60;;;;;;;0.88;57.47;100279.38;78190;1297;3052643;-66
2023/02/06 10:02:13;;;;;;;12.30;5.70;;;;;;;0.96;56.75;100277.94;78259;1300;3050912;-66
2023/02/06 10:04:43;;;;;;;9.90;5.20;;;;;;;1.23;57.01;100268.39;78323;1298;3052511;-63
2023/02/06 10:07:23;;;;;;;12.50;6.00;;;;;;;1.11;55.93;100267.45;79721;1298;3011774;-65
2023/02/06 10:09:55;;;;;;;12.20;6.30;;;;;;;1.16;56.35;100265.86;78210;1296;3068927;-62
2023/02/06 10:12:31;;;;;;;14.10;5.90;;;;;;;1.30;56.05;100263.31;79363;1295;3011483;-63
2023/02/06 10:15:28;;;;;;;11.20;6.10;;;;;;;1.33;55.76;100261.90;78181;1298;3058051;-64
2023/02/06 10:18:14;;;;;;;11.70;5.90;;;;;;;1.47;55.71;100252.60;78096;1299;3048781;-66
2023/02/06 10:20:56;;;;;;;9.00;5.00;;;;;;;1.57;55.66;100250.59;78113;1295;3053424;-63
2023/02/06 10:23:31;;;;;;;10.60;5.60;;;;;;;1.59;55.41;100250.92;78205;1298;3049923;-66
2023/02/06 10:26:07;;;;;;;11.40;5.00;;;;;;;1.49;55.62;100249.31;79454;1298;3011710;-67
2023/02/06 10:28:39;;;;;;;10.10;5.30;;;;;;;1.21;55.79;100247.34;78211;1298;3052434;-63
2023/02/06 10:31:34;;;;;;;11.90;4.90;;;;;;;1.08;56.53;100252.64;79504;1297;3011615;-63
2023/02/06 10:34:14;;;;;;;9.40;5.10;;;;;;;1.00;57.01;100246.86;78105;1301;3051375;-65
2023/02/06 10:37:00;;;;;;;7.30;4.20;;;;;;;0.97;57.28;100251.02;78120;1298;3057549;-64
2023/02/06 10:39:49;;;;;;;11.70;4.50;;;;;;;0.95;57.15;100255.35;79354;1296;3018365;-64
2023/02/06 10:42:39;;;;;;;9.80;4.80;;;;;;;0.85;57.30;100254.56;78161;1298;3050457;-63
2023/02/06 10:45:13;;;;;;;9.00;4.60;;;;;;;0.86;57.73;100253.02;78125;1295;3052221;-64
2023/02/06 10:47:41;;;;;;;6.80;4.30;;;;;;;0.96;57.92;100252.23;79373;1301;3011621;-63
2023/02/06 10:50:18;;;;;;;9.50;4.90;;;;;;;1.05;58.04;100249.58;78110;1301;3069312;-64
2023/02/06 10:52:46;;;;;;;7.20;3.90;;;;;;;1.18;57.31;100246.16;78109;1301;3052550;-66
2023/02/06 10:55:22;;;;;;;10.20;4.70;;;;;;;1.38;57.13;100244.23;79300;1294;3020760;-62
2023/02/06 10:58:04;;;;;;;10.20;5.20;;;;;;;1.48;56.91;100246.21;78118;1301;3054962;-64
2023/02/06 11:00:32;;;;;;;10.40;5.60;;;;;;;1.44;57.37;100246.60;78133;1301;3051201;-66
2023/02/06 11:03:00;;;;;;;9.40;5.50;;;;;;;1.29;57.65;100240.71;79348;1301;3013091;-63
2023/02/06 11:05:28;;;;;;;10.90;5.10;;;;;;;1.43;58.08;100238.15;79400;1299;3013566;-65
2023/02/06 11:08:06;;;;;;;8.30;4.60;;;;;;;1.44;57.14;100239.85;78184;1301;3053171;-66
2023/02/06 11:10:34;;;;;;;9.20;4.30;;;;;;;1.31;57.25;100240.86;78284;1301;3056764;-65
2023/02/06 11:13:15;;;;;;;11.00;5.10;;;;;;;1.52;57.22;100236.84;79551;1295;3015547;-64
2023/02/06 11:15:47;;;;;;;6.50;4.00;;;;;;;1.52;57.13;100245.47;78356;1295;3050664;-63